createdAt,value
2023-05-05T00:04:09.096Z,59.05
2023-05-05T00:07:50.723Z,59.25
2023-05-05T00:11:34.454Z,59.38
2023-05-05T00:15:26.205Z,59.46
2023-05-05T00:18:57.601Z,59.36
2023-05-05T00:22:44.734Z,59.27
2023-05-05T00:26:39.742Z,59.33
2023-05-05T00:30:33.169Z,59.00
2023-05-05T00:34:10.612Z,59.00
2023-05-05T00:37:55.009Z,58.81
2023-05-05T00:41:29.152Z,58.73
2023-05-05T00:45:13.212Z,58.70
2023-05-05T00:48:24.540Z,58.58
2023-05-05T00:52:13.292Z,58.34
2023-05-05T00:56:22.861Z,58.18
2023-05-05T00:59:18.016Z,58.08
2023-05-05T01:02:23.758Z,57.92
2023-05-05T01:05:46.512Z,58.02
2023-05-05T01:09:46.329Z,58.07
2023-05-05T01:13:08.719Z,58.29
2023-05-05T01:16:45.245Z,57.98
2023-05-05T01:20:32.786Z,57.78
2023-05-05T01:24:37.364Z,57.86
2023-05-05T01:27:55.880Z,57.64
2023-05-05T01:32:00.544Z,57.80
2023-05-05T01:35:54.474Z,57.64
2023-05-05T01:39:46.254Z,57.61
2023-05-05T01:43:36.652Z,57.72
2023-05-05T01:46:50.196Z,57.59
2023-05-05T01:50:14.781Z,57.56
2023-05-05T01:53:09.720Z,57.54
2023-05-05T01:57:18.245Z,57.77
2023-05-05T02:00:45.709Z,57.67
2023-05-05T02:04:36.882Z,57.76
2023-05-05T02:08:16.188Z,57.64
2023-05-05T02:11:34.023Z,57.60
2023-05-05T02:15:26.277Z,57.63
2023-05-05T02:19:34.671Z,57.53
2023-05-05T02:22:49.306Z,57.54
2023-05-05T02:26:50.555Z,57.52
2023-05-05T02:30:38.261Z,57.53
2023-05-05T02:34:16.540Z,57.34
2023-05-05T02:38:03.096Z,57.26
2023-05-05T02:41:55.975Z,57.20
2023-05-05T02:45:26.761Z,57.29
2023-05-05T02:49:16.743Z,57.22
2023-05-05T02:52:46.225Z,57.04
2023-05-05T02:55:49.842Z,56.90
2023-05-05T02:59:58.858Z,57.16
2023-05-05T03:03:30.494Z,56.92
2023-05-05T03:07:40.328Z,56.63
2023-05-05T03:10:59.325Z,56.67
2023-05-05T03:14:51.341Z,56.70
2023-05-05T03:18:28.586Z,56.53
2023-05-05T03:22:06.201Z,56.34
2023-05-05T03:26:25.115Z,56.34
2023-05-05T03:29:23.552Z,56.14
2023-05-05T03:32:48.290Z,56.11
2023-05-05T03:36:04.694Z,56.25
2023-05-05T03:39:56.486Z,56.03
2023-05-05T03:43:41.216Z,56.17
2023-05-05T03:47:25.778Z,55.95
2023-05-05T03:51:02.093Z,55.61
2023-05-05T03:54:47.004Z,55.52
2023-05-05T03:58:39.048Z,55.74
2023-05-05T04:02:24.330Z,56.00
2023-05-05T04:06:19.055Z,56.04
2023-05-05T04:09:49.223Z,56.12
2023-05-05T04:13:04.651Z,56.10
2023-05-05T04:16:57.091Z,56.16
2023-05-05T04:20:40.286Z,55.93
2023-05-05T04:23:52.239Z,55.83
2023-05-05T04:26:46.888Z,55.84
2023-05-05T04:30:16.984Z,55.63
2023-05-05T04:33:30.016Z,55.63
2023-05-05T04:36:14.989Z,55.66
2023-05-05T04:39:46.990Z,55.70
2023-05-05T04:43:41.371Z,55.66
2023-05-05T04:47:50.924Z,55.85
2023-05-05T04:52:00.556Z,55.68
2023-05-05T04:55:32.963Z,55.61
2023-05-05T04:58:40.676Z,55.55
2023-05-05T05:02:20.317Z,55.65
2023-05-05T05:06:22.411Z,55.75
2023-05-05T05:10:21.408Z,55.49
2023-05-05T05:14:24.591Z,55.48
2023-05-05T05:17:59.215Z,55.39
2023-05-05T05:20:54.910Z,55.48
2023-05-05T05:24:36.464Z,55.33
2023-05-05T05:28:06.103Z,55.38
2023-05-05T05:31:43.555Z,55.34
2023-05-05T05:35:52.958Z,55.57
2023-05-05T05:39:54.973Z,55.38
2023-05-05T05:44:04.490Z,55.37
2023-05-05T05:47:15.783Z,55.17
2023-05-05T05:50:46.048Z,55.12
2023-05-05T05:54:54.738Z,55.20
2023-05-05T05:58:53.581Z,55.10
2023-05-05T06:02:48.128Z,55.05
2023-05-05T06:06:07.916Z,55.08
2023-05-05T06:10:18.508Z,55.15
2023-05-05T06:14:07.091Z,55.04
2023-05-05T06:17:21.878Z,55.12
2023-05-05T06:21:08.627Z,55.17
2023-05-05T06:25:18.013Z,54.98
2023-05-05T06:29:27.779Z,55.13
2023-05-05T06:33:20.358Z,55.21
2023-05-05T06:37:27.396Z,55.11
2023-05-05T06:41:29.891Z,55.00
2023-05-05T06:45:39.555Z,55.02
2023-05-05T06:49:42.117Z,55.20
2023-05-05T06:53:33.955Z,55.11
2023-05-05T06:57:06.128Z,55.06
2023-05-05T07:00:35.543Z,54.96
2023-05-05T07:04:45.224Z,54.72
2023-05-05T07:08:37.220Z,54.80
2023-05-05T07:11:46.889Z,54.90
2023-05-05T07:15:46.306Z,54.86
2023-05-05T07:19:37.106Z,54.90
2023-05-05T07:23:46.115Z,55.10
2023-05-05T07:27:55.887Z,55.17
2023-05-05T07:31:12.646Z,55.14
2023-05-05T07:34:43.319Z,55.27
2023-05-05T07:38:52.986Z,55.04
2023-05-05T07:42:37.663Z,55.07
2023-05-05T07:46:40.115Z,55.26
2023-05-05T07:50:23.910Z,55.26
2023-05-05T07:54:03.792Z,55.19
2023-05-05T07:58:02.164Z,55.08
2023-05-05T08:01:53.161Z,55.11
2023-05-05T08:05:42.040Z,55.23
2023-05-05T08:09:45.252Z,55.23
2023-05-05T08:13:44.052Z,55.16
2023-05-05T08:17:40.302Z,55.30
2023-05-05T08:21:32.299Z,55.33
2023-05-05T08:25:41.868Z,55.29
2023-05-05T08:29:42.093Z,55.00
2023-05-05T08:33:51.552Z,55.00
2023-05-05T08:37:51.103Z,54.97
2023-05-05T08:41:53.358Z,55.17
2023-05-05T08:45:52.633Z,55.04
2023-05-05T08:50:02.121Z,54.80
2023-05-05T08:53:46.332Z,54.80
2023-05-05T08:57:30.807Z,54.78
2023-05-05T09:01:02.239Z,54.77
2023-05-05T09:04:51.620Z,54.85
2023-05-05T09:08:51.347Z,54.73
2023-05-05T09:12:42.633Z,54.79
2023-05-05T09:16:43.197Z,54.53
2023-05-05T09:20:58.124Z,54.48
2023-05-05T09:24:30.128Z,54.58
2023-05-05T09:28:26.180Z,54.46
2023-05-05T09:32:15.399Z,54.52
2023-05-05T09:36:07.687Z,54.40
2023-05-05T09:40:06.294Z,54.42
2023-05-05T09:44:30.797Z,54.29
2023-05-05T09:48:21.189Z,54.10
2023-05-05T09:52:09.528Z,53.97
2023-05-05T09:55:52.851Z,54.19
2023-05-05T10:00:11.419Z,54.14
2023-05-05T10:03:53.840Z,53.72
2023-05-05T10:07:20.834Z,53.80
2023-05-05T10:11:14.877Z,53.71
2023-05-05T10:15:08.713Z,53.35
2023-05-05T10:18:58.358Z,53.53
2023-05-05T10:22:27.962Z,53.20
2023-05-05T10:26:24.171Z,53.16
2023-05-05T10:30:25.476Z,53.34
2023-05-05T10:34:35.139Z,53.11
2023-05-05T10:38:34.248Z,53.12
2023-05-05T10:42:22.512Z,53.14
2023-05-05T10:45:50.204Z,52.90
2023-05-05T10:51:38.465Z,52.91
2023-05-05T10:54:15.125Z,52.79
2023-05-05T10:57:59.652Z,52.96
2023-05-05T11:01:50.929Z,52.77
2023-05-05T11:05:53.957Z,52.58
2023-05-05T11:09:22.444Z,52.66
2023-05-05T11:13:33.575Z,52.48
2023-05-05T11:17:42.356Z,52.35
2023-05-05T11:20:57.164Z,52.13
2023-05-05T11:25:01.252Z,51.97
2023-05-05T11:28:39.569Z,51.80
2023-05-05T11:31:49.759Z,51.60
2023-05-05T11:35:30.450Z,51.52
2023-05-05T11:38:47.991Z,51.66
2023-05-05T11:42:11.088Z,51.31
2023-05-05T11:45:41.441Z,51.30
2023-05-05T11:49:17.361Z,51.29
2023-05-05T11:53:26.862Z,50.97
2023-05-05T11:57:29.834Z,50.92
2023-05-05T12:00:58.809Z,50.95
2023-05-05T12:04:29.910Z,50.78
2023-05-05T12:08:39.354Z,50.64
2023-05-05T12:12:26.053Z,50.47
2023-05-05T12:15:51.778Z,50.39
2023-05-05T12:19:15.940Z,50.36
2023-05-05T12:22:50.575Z,50.32
2023-05-05T12:26:13.176Z,50.16
2023-05-05T12:30:08.442Z,50.03
2023-05-05T12:34:01.778Z,49.86
2023-05-05T12:38:07.536Z,49.77
2023-05-05T12:41:25.944Z,49.79
2023-05-05T12:45:09.241Z,49.71
2023-05-05T12:49:05.159Z,49.70
2023-05-05T12:52:35.788Z,49.56
2023-05-05T12:56:18.482Z,49.60
2023-05-05T13:00:26.710Z,49.13
2023-05-05T13:04:26.160Z,49.38
2023-05-05T13:07:49.231Z,49.06
2023-05-05T13:11:08.597Z,48.66
2023-05-05T13:15:01.012Z,48.73
2023-05-05T13:18:34.055Z,48.77
2023-05-05T13:21:25.062Z,48.86
2023-05-05T13:24:51.820Z,48.60
2023-05-05T13:28:36.809Z,48.51
2023-05-05T13:31:56.836Z,48.51
2023-05-05T13:34:58.064Z,48.46
2023-05-05T13:38:20.085Z,48.21
2023-05-05T13:42:18.361Z,47.97
2023-05-05T13:45:23.030Z,47.93
2023-05-05T13:48:56.763Z,47.88
2023-05-05T13:52:35.238Z,47.74
2023-05-05T13:56:16.525Z,47.67
2023-05-05T14:00:26.200Z,47.60
2023-05-05T14:04:05.681Z,47.51
2023-05-05T14:07:47.395Z,47.40
2023-05-05T14:11:17.397Z,47.27
2023-05-05T14:14:23.616Z,47.19
2023-05-05T14:17:52.955Z,47.28
2023-05-05T14:20:54.652Z,47.00
2023-05-05T14:23:31.260Z,46.79
2023-05-05T14:26:04.357Z,46.51
2023-05-05T14:28:35.631Z,46.46
2023-05-05T14:31:04.292Z,46.46
2023-05-05T14:33:36.208Z,46.34
2023-05-05T14:36:07.504Z,46.32
2023-05-05T14:38:58.640Z,46.14
2023-05-05T14:41:35.630Z,46.03
2023-05-05T14:44:07.688Z,46.10
2023-05-05T14:46:42.558Z,45.94
2023-05-05T14:49:12.264Z,45.87
2023-05-05T14:51:43.923Z,45.72
2023-05-05T14:54:30.451Z,45.62
2023-05-05T14:57:46.910Z,45.49
2023-05-05T15:01:23.823Z,45.48
2023-05-05T15:04:40.794Z,45.35
2023-05-05T15:08:10.168Z,45.02
2023-05-05T15:11:00.495Z,44.83
2023-05-05T15:14:09.620Z,44.67
2023-05-05T15:16:58.384Z,44.54
2023-05-05T15:20:05.369Z,44.47
2023-05-05T15:23:30.239Z,44.38
2023-05-05T15:27:15.059Z,44.42
2023-05-05T15:30:57.589Z,44.22
2023-05-05T15:34:37.757Z,44.18
2023-05-05T15:38:29.498Z,44.00
2023-05-05T15:42:10.359Z,43.75
2023-05-05T15:46:01.991Z,43.62
2023-05-05T15:50:10.450Z,43.46
2023-05-05T15:53:59.537Z,43.43
2023-05-05T15:57:03.322Z,43.36
2023-05-05T15:59:43.286Z,43.19
2023-05-05T16:02:23.667Z,43.14
2023-05-05T16:05:45.544Z,42.98
2023-05-05T16:09:55.204Z,42.77
2023-05-05T16:13:27.810Z,42.49
2023-05-05T16:16:12.285Z,42.64
2023-05-05T16:19:16.051Z,42.60
2023-05-05T16:22:28.966Z,42.45
2023-05-05T16:26:18.958Z,42.49
2023-05-05T16:29:45.884Z,42.51
2023-05-05T16:33:36.533Z,42.64
2023-05-05T16:37:38.393Z,42.70
2023-05-05T16:41:41.394Z,42.68
2023-05-05T16:45:51.349Z,42.51
2023-05-05T16:50:03.326Z,42.59
2023-05-05T16:54:04.889Z,42.66
2023-05-05T16:57:35.926Z,42.74
2023-05-05T17:01:04.171Z,42.79
2023-05-05T17:04:46.111Z,42.96
2023-05-05T17:08:17.595Z,42.94
2023-05-05T17:12:04.388Z,42.96
2023-05-05T17:15:11.600Z,42.92
2023-05-05T17:18:31.314Z,42.96
2023-05-05T17:22:40.704Z,43.04
2023-05-05T17:26:05.547Z,43.14
2023-05-05T17:29:23.857Z,43.32
2023-05-05T17:33:13.555Z,43.36
2023-05-05T17:37:05.235Z,43.54
2023-05-05T17:41:14.700Z,43.82
2023-05-05T17:45:05.841Z,44.15
2023-05-05T17:49:05.748Z,44.37
2023-05-05T17:52:49.793Z,44.48
2023-05-05T17:56:30.527Z,44.75
2023-05-05T18:00:13.811Z,44.96
2023-05-05T18:03:55.698Z,45.12
2023-05-05T18:08:05.468Z,45.28
2023-05-05T18:11:54.806Z,45.43
2023-05-05T18:16:03.741Z,45.61
2023-05-05T18:19:38.275Z,45.85
2023-05-05T18:23:17.528Z,46.08
2023-05-05T18:26:53.236Z,46.20
2023-05-05T18:30:37.139Z,46.55
2023-05-05T18:34:01.937Z,46.72
2023-05-05T18:37:50.260Z,46.76
2023-05-05T18:41:15.697Z,46.89
2023-05-05T18:45:15.043Z,47.11
2023-05-05T18:49:14.241Z,47.16
2023-05-05T18:53:06.348Z,47.60
2023-05-05T18:57:07.003Z,47.85
2023-05-05T19:01:02.098Z,48.05
2023-05-05T19:04:32.575Z,48.08
2023-05-05T19:08:42.188Z,48.09
2023-05-05T19:12:51.743Z,48.32
2023-05-05T19:16:30.497Z,48.45
2023-05-05T19:19:17.152Z,48.69
2023-05-05T19:23:17.593Z,48.86
2023-05-05T19:27:16.592Z,49.04
2023-05-05T19:31:24.817Z,49.22
2023-05-05T19:35:10.539Z,49.24
2023-05-05T19:38:44.846Z,49.33
2023-05-05T19:42:50.387Z,49.58
2023-05-05T19:46:37.679Z,49.86
2023-05-05T19:50:19.903Z,49.94
2023-05-05T19:54:20.339Z,50.27
2023-05-05T19:58:29.922Z,50.37
2023-05-05T20:02:15.304Z,50.49
2023-05-05T20:06:10.690Z,50.71
2023-05-05T20:10:13.003Z,51.08
2023-05-05T20:14:01.049Z,51.30
2023-05-05T20:18:10.668Z,51.38
2023-05-05T20:22:20.120Z,51.52
2023-05-05T20:26:21.304Z,51.61
2023-05-05T20:30:20.799Z,51.74
2023-05-05T20:34:30.410Z,52.03
2023-05-05T20:38:39.973Z,52.21
2023-05-05T20:42:49.467Z,52.34
2023-05-05T20:46:24.391Z,52.44
2023-05-05T20:50:26.835Z,52.60
2023-05-05T20:54:36.537Z,52.81
2023-05-05T20:58:45.929Z,53.03
2023-05-05T21:02:31.822Z,53.04
2023-05-05T21:06:26.125Z,53.09
2023-05-05T21:10:26.702Z,53.25
2023-05-05T21:14:36.090Z,53.50
2023-05-05T21:18:46.012Z,53.47
2023-05-05T21:22:55.168Z,53.55
2023-05-05T21:27:04.788Z,53.65
2023-05-05T21:31:21.967Z,53.72
2023-05-05T21:35:37.232Z,53.94
2023-05-05T21:39:46.775Z,54.06
2023-05-05T21:43:49.073Z,54.14
2023-05-05T21:47:33.651Z,54.24
2023-05-05T21:51:41.930Z,54.36
2023-05-05T21:55:51.378Z,54.52
2023-05-05T22:00:01.046Z,54.49
2023-05-05T22:03:48.063Z,54.87
2023-05-05T22:07:57.669Z,54.84
2023-05-05T22:12:07.244Z,54.80
2023-05-05T22:16:16.938Z,55.09
2023-05-05T22:20:28.817Z,55.23
2023-05-05T22:24:38.400Z,55.43
2023-05-05T22:28:47.805Z,55.34
2023-05-05T22:32:57.332Z,55.41
2023-05-05T22:37:06.905Z,55.57
2023-05-05T22:41:16.366Z,55.84
2023-05-05T22:45:25.919Z,55.88
2023-05-05T22:49:35.633Z,56.06
2023-05-05T22:53:25.047Z,56.08
2023-05-05T22:57:33.907Z,56.22
2023-05-05T23:01:43.532Z,56.37
2023-05-05T23:05:45.596Z,56.47
2023-05-05T23:09:55.046Z,56.52
2023-05-05T23:13:54.533Z,56.57
2023-05-05T23:17:38.978Z,56.90
2023-05-05T23:21:53.368Z,56.84
2023-05-05T23:26:03.349Z,56.91
2023-05-05T23:30:12.928Z,57.01
2023-05-05T23:34:12.142Z,57.04
2023-05-05T23:38:30.286Z,57.09
2023-05-05T23:42:39.194Z,57.16
2023-05-05T23:46:48.684Z,57.32
2023-05-05T23:50:58.139Z,57.29
2023-05-05T23:55:08.242Z,57.30
2023-05-05T23:59:17.977Z,57.30
